createdAt,value
2018-07-22T00:01:07.323Z,85.50
2018-07-22T00:03:35.990Z,85.10
2018-07-22T00:06:04.852Z,84.60
2018-07-22T00:08:33.664Z,84.80
2018-07-22T00:11:02.461Z,84.40
2018-07-22T00:13:31.164Z,84.40
2018-07-22T00:15:59.832Z,84.30
2018-07-22T00:18:28.556Z,84.10
2018-07-22T00:20:57.241Z,84.60
2018-07-22T00:23:25.946Z,84.90
2018-07-22T00:25:54.628Z,85.10
2018-07-22T00:28:23.405Z,85.80
2018-07-22T00:30:52.134Z,85.80
2018-07-22T00:33:20.805Z,84.90
2018-07-22T00:35:49.568Z,86.80
2018-07-22T00:38:18.298Z,87.10
2018-07-22T00:40:47.048Z,86.50
2018-07-22T00:43:15.779Z,87.20
2018-07-22T00:45:44.558Z,86.80
2018-07-22T00:48:13.272Z,88.60
2018-07-22T00:50:42.016Z,88.90
2018-07-22T00:53:10.662Z,89.20
2018-07-22T00:55:39.534Z,89.40
2018-07-22T00:58:08.181Z,89.70
2018-07-22T01:00:36.831Z,89.80
2018-07-22T01:03:05.626Z,89.70
2018-07-22T01:05:34.256Z,90.00
2018-07-22T01:08:03.118Z,90.10
2018-07-22T01:10:31.831Z,90.30
2018-07-22T01:13:00.517Z,90.50
2018-07-22T01:15:29.238Z,90.60
2018-07-22T01:17:57.903Z,90.60
2018-07-22T01:20:26.526Z,90.80
2018-07-22T01:22:55.156Z,90.90
2018-07-22T01:25:24.007Z,90.90
2018-07-22T01:27:52.784Z,90.50
2018-07-22T01:30:21.634Z,90.90
2018-07-22T01:32:50.264Z,90.90
2018-07-22T01:35:18.870Z,91.10
2018-07-22T01:37:47.532Z,91.20
2018-07-22T01:40:16.253Z,91.30
2018-07-22T01:42:45.095Z,91.50
2018-07-22T01:45:13.797Z,91.60
2018-07-22T01:47:42.823Z,91.60
2018-07-22T01:50:11.635Z,91.70
2018-07-22T01:52:40.356Z,91.70
2018-07-22T01:55:09.068Z,91.80
2018-07-22T01:57:37.728Z,91.80
2018-07-22T02:00:06.499Z,91.90
2018-07-22T02:02:35.201Z,91.90
2018-07-22T02:05:03.893Z,92.00
2018-07-22T02:07:32.696Z,92.60
2018-07-22T02:10:01.454Z,92.30
2018-07-22T02:12:30.143Z,92.50
2018-07-22T02:14:58.880Z,92.60
2018-07-22T02:17:27.580Z,92.30
2018-07-22T02:19:56.284Z,92.30
2018-07-22T02:22:25.098Z,92.30
2018-07-22T02:24:53.762Z,92.50
2018-07-22T02:27:22.492Z,92.60
2018-07-22T02:29:51.174Z,92.70
2018-07-22T02:32:19.909Z,92.90
2018-07-22T02:34:51.641Z,92.90
2018-07-22T02:37:20.438Z,92.70
2018-07-22T02:39:49.143Z,93.30
2018-07-22T02:42:17.821Z,93.20
2018-07-22T02:44:46.535Z,93.10
2018-07-22T02:47:15.278Z,92.70
2018-07-22T02:49:44.035Z,93.00
2018-07-22T02:52:12.728Z,93.20
2018-07-22T02:54:41.472Z,93.30
2018-07-22T02:57:10.514Z,93.60
2018-07-22T02:59:39.143Z,93.60
2018-07-22T03:02:07.992Z,93.60
2018-07-22T03:04:36.705Z,93.90
2018-07-22T03:07:05.556Z,94.10
2018-07-22T03:09:36.784Z,94.10
2018-07-22T03:12:06.477Z,94.40
2018-07-22T03:14:36.236Z,94.50
2018-07-22T03:17:05.033Z,94.60
2018-07-22T03:19:33.788Z,94.80
2018-07-22T03:22:02.494Z,94.90
2018-07-22T03:24:31.312Z,95.00
2018-07-22T03:27:00.652Z,95.10
2018-07-22T03:29:29.459Z,95.20
2018-07-22T03:31:58.196Z,95.40
2018-07-22T03:34:26.905Z,95.40
2018-07-22T03:36:58.422Z,95.30
2018-07-22T03:39:27.086Z,95.50
2018-07-22T03:41:55.840Z,95.40
2018-07-22T03:44:24.522Z,95.60
2018-07-22T03:46:53.535Z,95.70
2018-07-22T03:49:22.146Z,95.70
2018-07-22T03:51:50.987Z,95.70
2018-07-22T03:54:19.660Z,95.70
2018-07-22T03:56:48.391Z,95.50
2018-07-22T03:59:17.099Z,95.60
2018-07-22T04:01:45.824Z,95.40
2018-07-22T04:04:14.532Z,95.10
2018-07-22T04:06:43.306Z,95.40
2018-07-22T04:09:12.099Z,95.40
2018-07-22T04:11:40.937Z,95.30
2018-07-22T04:14:09.720Z,95.50
2018-07-22T04:16:38.436Z,95.60
2018-07-22T04:19:07.164Z,95.70
2018-07-22T04:21:36.048Z,95.80
2018-07-22T04:24:04.752Z,95.80
2018-07-22T04:26:33.533Z,95.70
2018-07-22T04:29:02.283Z,95.90
2018-07-22T04:31:30.995Z,96.00
2018-07-22T04:33:59.683Z,96.10
2018-07-22T04:36:28.431Z,96.10
2018-07-22T04:38:57.181Z,96.20
2018-07-22T04:41:25.843Z,96.20
2018-07-22T04:43:54.601Z,96.40
2018-07-22T04:46:23.394Z,96.50
2018-07-22T04:48:52.453Z,96.60
2018-07-22T04:51:21.217Z,96.70
2018-07-22T04:53:49.916Z,96.60
2018-07-22T04:56:18.670Z,96.60
2018-07-22T04:58:47.317Z,96.60
2018-07-22T05:01:15.968Z,96.50
2018-07-22T05:03:44.640Z,96.40
2018-07-22T05:06:13.413Z,96.30
2018-07-22T05:08:42.164Z,96.30
2018-07-22T05:11:10.931Z,96.30
2018-07-22T05:13:39.768Z,96.40
2018-07-22T05:16:08.620Z,96.40
2018-07-22T05:18:37.390Z,96.30
2018-07-22T05:21:06.096Z,96.30
2018-07-22T05:23:34.790Z,96.00
2018-07-22T05:26:03.468Z,96.00
2018-07-22T05:28:32.236Z,95.90
2018-07-22T05:31:01.066Z,95.80
2018-07-22T05:33:29.726Z,95.90
2018-07-22T05:35:58.580Z,95.90
2018-07-22T05:38:27.364Z,95.60
2018-07-22T05:40:56.100Z,95.40
2018-07-22T05:43:24.774Z,95.80
2018-07-22T05:45:53.426Z,95.20
2018-07-22T05:48:22.226Z,95.00
2018-07-22T05:50:52.054Z,94.80
2018-07-22T05:53:20.785Z,94.90
2018-07-22T05:55:49.449Z,94.60
2018-07-22T05:58:18.252Z,94.60
2018-07-22T06:00:47.307Z,94.60
2018-07-22T06:03:16.083Z,94.30
2018-07-22T06:05:44.769Z,94.20
2018-07-22T06:08:13.508Z,93.90
2018-07-22T06:10:42.241Z,93.80
2018-07-22T06:13:11.062Z,93.80
2018-07-22T06:15:39.955Z,93.30
2018-07-22T06:18:08.776Z,93.10
2018-07-22T06:20:37.505Z,93.10
2018-07-22T06:23:06.638Z,92.80
2018-07-22T06:25:35.523Z,92.60
2018-07-22T06:28:04.368Z,92.80
2018-07-22T06:30:33.060Z,92.90
2018-07-22T06:33:01.910Z,92.60
2018-07-22T06:35:31.587Z,92.10
2018-07-22T06:38:00.332Z,91.80
2018-07-22T06:40:29.120Z,91.70
2018-07-22T06:42:57.887Z,91.60
2018-07-22T06:45:26.743Z,90.60
2018-07-22T06:47:55.516Z,90.60
2018-07-22T06:50:24.320Z,90.10
2018-07-22T06:52:53.015Z,89.60
2018-07-22T06:55:24.736Z,88.30
2018-07-22T06:57:53.670Z,87.60
2018-07-22T07:00:22.405Z,87.70
2018-07-22T07:02:51.076Z,87.10
2018-07-22T07:05:20.987Z,86.70
2018-07-22T07:07:49.740Z,87.50
2018-07-22T07:10:18.509Z,87.90
2018-07-22T07:12:47.278Z,87.10
2018-07-22T07:15:15.948Z,86.40
2018-07-22T07:17:44.815Z,84.90
2018-07-22T07:20:13.484Z,85.30
2018-07-22T07:22:42.268Z,85.10
2018-07-22T07:25:10.923Z,83.50
2018-07-22T07:27:39.657Z,83.40
2018-07-22T07:30:11.785Z,81.70
2018-07-22T07:32:41.396Z,82.40
2018-07-22T07:35:11.028Z,82.40
2018-07-22T07:37:42.061Z,82.40
2018-07-22T07:40:20.610Z,81.50
2018-07-22T07:42:51.910Z,79.70
2018-07-22T07:45:21.890Z,79.60
2018-07-22T07:47:54.493Z,80.00
2018-07-22T07:50:23.437Z,79.20
2018-07-22T07:52:54.645Z,77.30
2018-07-22T07:55:24.402Z,77.90
2018-07-22T07:57:53.724Z,77.20
2018-07-22T08:00:22.591Z,76.10
2018-07-22T08:02:51.382Z,76.10
2018-07-22T08:05:20.233Z,73.60
2018-07-22T08:07:49.168Z,75.00
2018-07-22T08:10:20.817Z,70.60
2018-07-22T08:12:52.157Z,72.20
2018-07-22T08:15:20.916Z,70.60
2018-07-22T08:17:53.596Z,69.70
2018-07-22T08:20:22.743Z,69.60
2018-07-22T08:22:52.781Z,66.30
2018-07-22T08:25:21.678Z,66.00
2018-07-22T08:27:50.302Z,68.10
2018-07-22T08:30:19.855Z,66.10
2018-07-22T08:32:49.743Z,66.80
2018-07-22T08:35:18.691Z,66.00
2018-07-22T08:37:47.415Z,63.10
2018-07-22T08:40:16.168Z,64.30
2018-07-22T08:42:44.892Z,62.10
2018-07-22T08:45:13.680Z,61.60
2018-07-22T08:47:42.532Z,61.20
2018-07-22T08:50:11.181Z,59.50
2018-07-22T08:52:40.052Z,61.10
2018-07-22T08:55:08.907Z,59.10
2018-07-22T08:57:37.705Z,58.60
2018-07-22T09:00:06.857Z,57.30
2018-07-22T09:02:35.557Z,57.10
2018-07-22T09:05:04.344Z,56.60
2018-07-22T09:07:33.286Z,56.50
2018-07-22T09:10:02.083Z,55.90
2018-07-22T09:12:30.756Z,55.90
2018-07-22T09:14:59.516Z,56.30
2018-07-22T09:17:29.838Z,55.80
2018-07-22T09:19:58.633Z,56.00
2018-07-22T09:22:27.528Z,55.40
2018-07-22T09:24:56.296Z,55.30
2018-07-22T09:27:25.076Z,54.00
2018-07-22T09:29:53.895Z,51.90
2018-07-22T09:32:22.717Z,52.30
2018-07-22T09:34:51.381Z,53.60
2018-07-22T09:37:20.101Z,51.80
2018-07-22T09:39:48.934Z,52.20
2018-07-22T09:42:17.631Z,51.30
2018-07-22T09:44:46.931Z,49.70
2018-07-22T09:47:16.086Z,51.20
2018-07-22T09:49:45.337Z,51.50
2018-07-22T09:52:14.106Z,49.10
2018-07-22T09:54:42.989Z,47.90
2018-07-22T09:57:12.791Z,49.40
2018-07-22T09:59:41.730Z,50.20
2018-07-22T10:02:10.724Z,51.30
2018-07-22T10:04:39.580Z,49.90
2018-07-22T10:07:09.124Z,49.60
2018-07-22T10:09:38.032Z,50.70
2018-07-22T10:12:07.042Z,49.10
2018-07-22T10:14:35.954Z,50.40
2018-07-22T10:17:04.842Z,49.50
2018-07-22T10:19:33.733Z,48.10
2018-07-22T10:22:02.678Z,49.00
2018-07-22T10:24:31.554Z,48.90
2018-07-22T10:27:00.411Z,48.20
2018-07-22T10:29:29.298Z,47.90
2018-07-22T10:31:58.145Z,50.80
2018-07-22T10:34:27.029Z,49.00
2018-07-22T10:36:55.897Z,47.70
2018-07-22T10:39:24.871Z,46.30
2018-07-22T10:41:53.909Z,46.80
2018-07-22T10:44:22.981Z,47.90
2018-07-22T10:46:52.023Z,46.80
2018-07-22T10:49:22.561Z,47.00
2018-07-22T10:51:52.842Z,49.80
2018-07-22T10:54:24.785Z,47.50
2018-07-22T10:56:56.000Z,48.10
2018-07-22T10:59:24.975Z,48.60
2018-07-22T11:01:53.909Z,47.40
2018-07-22T11:04:22.854Z,46.50
2018-07-22T11:06:52.588Z,46.90
2018-07-22T11:09:21.478Z,44.80
2018-07-22T11:11:50.326Z,44.60
2018-07-22T11:14:19.214Z,44.20
2018-07-22T11:16:49.520Z,47.90
2018-07-22T11:19:18.284Z,47.00
2018-07-22T11:21:47.165Z,45.90
2018-07-22T11:24:15.989Z,45.70
2018-07-22T11:26:44.849Z,47.10
2018-07-22T11:29:13.623Z,47.80
2018-07-22T11:31:42.844Z,45.80
2018-07-22T11:34:11.915Z,45.50
2018-07-22T11:36:40.847Z,47.20
2018-07-22T11:39:10.929Z,44.50
2018-07-22T11:41:40.355Z,43.00
2018-07-22T11:44:10.089Z,44.10
2018-07-22T11:46:39.782Z,43.30
2018-07-22T11:49:09.230Z,42.90
2018-07-22T11:51:38.770Z,44.40
2018-07-22T11:54:11.413Z,45.40
2018-07-22T11:56:40.249Z,46.80
2018-07-22T11:59:09.099Z,47.90
2018-07-22T12:01:37.981Z,46.60
2018-07-22T12:04:07.130Z,47.00
2018-07-22T12:06:35.921Z,46.30
2018-07-22T12:09:06.794Z,47.20
2018-07-22T12:11:35.441Z,47.00
2018-07-22T12:14:04.382Z,46.10
2018-07-22T12:16:33.125Z,42.70
2018-07-22T12:19:02.033Z,44.30
2018-07-22T12:21:30.794Z,48.10
2018-07-22T12:23:59.473Z,45.20
2018-07-22T12:26:28.198Z,45.60
2018-07-22T12:28:57.026Z,45.40
2018-07-22T12:31:25.837Z,45.30
2018-07-22T12:33:54.590Z,44.70
2018-07-22T12:36:23.284Z,44.10
2018-07-22T12:38:51.978Z,44.20
2018-07-22T12:41:20.764Z,46.70
2018-07-22T12:43:51.331Z,48.50
2018-07-22T12:46:20.145Z,48.60
2018-07-22T12:48:48.981Z,43.70
2018-07-22T12:51:17.782Z,42.50
2018-07-22T12:53:46.610Z,42.40
2018-07-22T12:56:15.883Z,42.90
2018-07-22T12:58:44.580Z,40.20
2018-07-22T13:01:13.399Z,41.00
2018-07-22T13:03:42.301Z,42.00
2018-07-22T13:06:11.145Z,44.10
2018-07-22T13:08:39.992Z,42.40
2018-07-22T13:11:09.130Z,42.30
2018-07-22T13:13:38.043Z,43.10
2018-07-22T13:16:07.035Z,43.10
2018-07-22T13:18:35.832Z,43.90
2018-07-22T13:21:04.692Z,43.40
2018-07-22T13:23:33.411Z,42.50
2018-07-22T13:26:02.507Z,43.60
2018-07-22T13:28:31.449Z,43.20
2018-07-22T13:31:00.387Z,43.50
2018-07-22T13:33:29.290Z,42.90
2018-07-22T13:35:58.327Z,44.00
2018-07-22T13:38:27.715Z,43.30
2018-07-22T13:40:57.022Z,44.30
2018-07-22T13:43:25.766Z,46.30
2018-07-22T13:45:54.757Z,47.30
2018-07-22T13:48:24.031Z,48.50
2018-07-22T13:50:53.390Z,49.40
2018-07-22T13:53:22.325Z,50.00
2018-07-22T13:55:51.188Z,51.20
2018-07-22T13:58:20.171Z,50.40
2018-07-22T14:00:49.034Z,51.50
2018-07-22T14:03:18.046Z,51.10
2018-07-22T14:05:47.027Z,51.30
2018-07-22T14:08:15.942Z,51.90
2018-07-22T14:10:44.805Z,51.70
2018-07-22T14:13:13.559Z,52.00
2018-07-22T14:15:42.484Z,51.60
2018-07-22T14:18:11.376Z,51.50
2018-07-22T14:20:40.398Z,52.30
2018-07-22T14:23:09.508Z,52.00
2018-07-22T14:25:38.324Z,53.20
2018-07-22T14:28:07.473Z,53.30
2018-07-22T14:30:36.413Z,54.10
2018-07-22T14:33:05.300Z,53.70
2018-07-22T14:35:34.242Z,53.20
2018-07-22T14:38:03.078Z,54.00
2018-07-22T14:40:31.891Z,53.80
2018-07-22T14:43:00.753Z,52.70
2018-07-22T14:45:29.649Z,52.20
2018-07-22T14:47:58.376Z,53.40
2018-07-22T14:50:27.323Z,52.70
2018-07-22T14:52:56.271Z,53.10
2018-07-22T14:55:25.226Z,54.00
2018-07-22T14:57:55.453Z,54.60
2018-07-22T15:00:24.409Z,53.80
2018-07-22T15:02:53.236Z,54.20
2018-07-22T15:05:22.251Z,54.70
2018-07-22T15:07:51.112Z,55.00
2018-07-22T15:10:19.969Z,54.80
2018-07-22T15:12:48.712Z,54.90
2018-07-22T15:15:17.527Z,54.90
2018-07-22T15:17:46.368Z,55.50
2018-07-22T15:20:15.060Z,54.50
2018-07-22T15:22:43.840Z,55.10
2018-07-22T15:25:12.653Z,54.70
2018-07-22T15:27:41.419Z,52.70
2018-07-22T15:30:10.186Z,53.70
2018-07-22T15:32:39.128Z,52.00
2018-07-22T15:35:07.977Z,52.60
2018-07-22T15:37:36.648Z,51.20
2018-07-22T15:40:05.942Z,50.50
2018-07-22T15:42:34.808Z,50.30
2018-07-22T15:45:03.554Z,50.70
2018-07-22T15:47:32.206Z,51.00
2018-07-22T15:50:00.854Z,49.50
2018-07-22T15:52:29.623Z,50.20
2018-07-22T15:54:58.423Z,49.80
2018-07-22T15:57:27.083Z,49.80
2018-07-22T15:59:56.440Z,49.30
2018-07-22T16:02:25.475Z,49.80
2018-07-22T16:04:54.136Z,49.10
2018-07-22T16:07:22.951Z,49.60
2018-07-22T16:09:51.627Z,49.30
2018-07-22T16:12:20.388Z,50.00
2018-07-22T16:14:49.242Z,48.10
2018-07-22T16:17:18.069Z,48.00
2018-07-22T16:19:46.829Z,48.90
2018-07-22T16:22:15.645Z,49.00
2018-07-22T16:24:44.516Z,51.00
2018-07-22T16:27:13.334Z,49.80
2018-07-22T16:29:42.379Z,49.70
2018-07-22T16:32:11.302Z,49.00
2018-07-22T16:34:40.104Z,49.30
2018-07-22T16:37:08.845Z,49.60
2018-07-22T16:39:37.533Z,49.70
2018-07-22T16:42:06.315Z,50.10
2018-07-22T16:44:35.071Z,49.00
2018-07-22T16:47:03.841Z,49.00
2018-07-22T16:49:32.620Z,47.70
2018-07-22T16:52:01.355Z,49.00
2018-07-22T16:54:30.104Z,49.00
2018-07-22T16:56:58.844Z,50.20
2018-07-22T16:59:27.739Z,50.60
2018-07-22T17:01:56.581Z,51.10
2018-07-22T17:04:25.281Z,50.50
2018-07-22T17:06:54.654Z,50.70
2018-07-22T17:09:23.331Z,50.50
2018-07-22T17:11:52.063Z,50.40
2018-07-22T17:14:20.740Z,50.80
2018-07-22T17:16:49.542Z,51.20
2018-07-22T17:19:18.260Z,50.90
2018-07-22T17:21:47.004Z,50.50
2018-07-22T17:24:15.723Z,51.50
2018-07-22T17:26:44.361Z,51.20
2018-07-22T17:29:13.120Z,51.00
2018-07-22T17:31:41.771Z,50.90
2018-07-22T17:34:10.472Z,51.50
2018-07-22T17:36:39.259Z,51.50
2018-07-22T17:39:09.418Z,52.60
2018-07-22T17:41:38.666Z,52.80
2018-07-22T17:44:07.798Z,52.50
2018-07-22T17:46:36.695Z,52.50
2018-07-22T17:49:05.532Z,51.40
2018-07-22T17:51:34.244Z,52.80
2018-07-22T17:54:02.899Z,54.20
2018-07-22T17:56:31.697Z,55.10
2018-07-22T17:59:00.862Z,53.90
2018-07-22T18:01:29.668Z,54.00
2018-07-22T18:03:58.346Z,55.10
2018-07-22T18:06:27.268Z,55.70
2018-07-22T18:08:56.014Z,56.40
2018-07-22T18:11:24.844Z,56.60
2018-07-22T18:13:53.626Z,56.20
2018-07-22T18:16:22.385Z,57.00
2018-07-22T18:18:51.162Z,57.30
2018-07-22T18:21:19.966Z,57.60
2018-07-22T18:23:48.786Z,56.60
2018-07-22T18:26:17.650Z,56.60
2018-07-22T18:28:46.337Z,57.00
2018-07-22T18:31:15.036Z,56.00
2018-07-22T18:33:43.819Z,54.80
2018-07-22T18:36:12.510Z,56.70
2018-07-22T18:38:41.295Z,57.90
2018-07-22T18:41:10.000Z,58.20
2018-07-22T18:43:38.796Z,58.30
2018-07-22T18:46:07.524Z,58.50
2018-07-22T18:48:36.569Z,58.90
2018-07-22T18:51:05.542Z,59.50
2018-07-22T18:53:34.328Z,59.90
2018-07-22T18:56:03.485Z,60.10
2018-07-22T18:58:32.421Z,60.10
2018-07-22T19:01:01.436Z,61.20
2018-07-22T19:03:31.255Z,60.80
2018-07-22T19:06:00.206Z,60.90
2018-07-22T19:08:29.059Z,61.90
2018-07-22T19:10:57.889Z,63.60
2018-07-22T19:13:26.637Z,64.90
2018-07-22T19:15:55.536Z,65.50
2018-07-22T19:18:25.211Z,65.50
2018-07-22T19:20:53.939Z,65.70
2018-07-22T19:23:22.826Z,66.10
2018-07-22T19:25:51.812Z,66.10
2018-07-22T19:28:20.563Z,66.70
2018-07-22T19:30:49.504Z,68.90
2018-07-22T19:33:18.387Z,68.90
2018-07-22T19:35:47.238Z,68.10
2018-07-22T19:38:16.128Z,68.30
2018-07-22T19:40:44.898Z,68.00
2018-07-22T19:43:13.928Z,68.20
2018-07-22T19:45:42.734Z,69.00
2018-07-22T19:48:11.629Z,69.30
2018-07-22T19:50:40.355Z,69.20
2018-07-22T19:53:09.155Z,69.50
2018-07-22T19:55:38.000Z,69.90
2018-07-22T19:58:06.721Z,69.90
2018-07-22T20:00:35.677Z,70.20
2018-07-22T20:03:04.593Z,70.40
2018-07-22T20:05:33.498Z,70.80
2018-07-22T20:08:02.356Z,70.80
2018-07-22T20:10:31.228Z,70.80
2018-07-22T20:13:00.082Z,71.20
2018-07-22T20:15:29.066Z,71.60
2018-07-22T20:17:57.983Z,71.50
2018-07-22T20:20:26.691Z,71.50
2018-07-22T20:22:55.454Z,72.20
2018-07-22T20:25:24.340Z,72.40
2018-07-22T20:27:53.076Z,72.30
2018-07-22T20:30:21.949Z,72.50
2018-07-22T20:32:50.750Z,72.50
2018-07-22T20:35:19.556Z,72.10
2018-07-22T20:37:48.241Z,72.30
2018-07-22T20:40:17.007Z,73.10
2018-07-22T20:42:45.724Z,73.50
2018-07-22T20:45:14.640Z,73.70
2018-07-22T20:47:43.241Z,72.70
2018-07-22T20:50:11.932Z,72.80
2018-07-22T20:52:40.607Z,72.60
2018-07-22T20:55:09.266Z,71.90
2018-07-22T20:57:37.989Z,72.10
2018-07-22T21:00:06.816Z,72.50
2018-07-22T21:02:36.488Z,72.40
2018-07-22T21:05:05.336Z,73.30
2018-07-22T21:07:34.085Z,72.50
2018-07-22T21:10:02.868Z,71.90
2018-07-22T21:12:45.280Z,72.20
2018-07-22T21:15:14.720Z,72.30
2018-07-22T21:17:44.239Z,72.20
2018-07-22T21:20:13.093Z,72.50
2018-07-22T21:22:41.825Z,72.50
2018-07-22T21:25:10.794Z,72.80
2018-07-22T21:27:39.526Z,72.90
2018-07-22T21:30:09.880Z,73.30
2018-07-22T21:32:38.630Z,72.90
2018-07-22T21:35:07.386Z,73.10
2018-07-22T21:37:36.252Z,73.00
2018-07-22T21:40:05.472Z,73.50
2018-07-22T21:42:34.302Z,73.80
2018-07-22T21:45:03.619Z,73.60
2018-07-22T21:47:32.415Z,73.40
2018-07-22T21:50:01.253Z,74.10
2018-07-22T21:52:29.972Z,74.10
2018-07-22T21:54:58.782Z,74.10
2018-07-22T21:57:27.573Z,73.60
2018-07-22T21:59:56.316Z,73.60
2018-07-22T22:02:31.988Z,73.60
2018-07-22T22:05:01.671Z,73.60
2018-07-22T22:07:30.601Z,74.00
2018-07-22T22:09:59.478Z,73.90
2018-07-22T22:12:28.176Z,74.50
2018-07-22T22:14:56.980Z,74.70
2018-07-22T22:17:25.668Z,75.00
2018-07-22T22:19:54.553Z,75.20
2018-07-22T22:22:23.268Z,75.30
2018-07-22T22:24:52.145Z,75.40
2018-07-22T22:27:20.773Z,75.30
2018-07-22T22:29:49.444Z,76.20
2018-07-22T22:32:18.110Z,75.90
2018-07-22T22:34:46.777Z,76.20
2018-07-22T22:37:15.444Z,76.70
2018-07-22T22:39:44.247Z,76.90
2018-07-22T22:42:13.040Z,77.50
2018-07-22T22:44:41.766Z,77.60
2018-07-22T22:47:10.509Z,77.90
2018-07-22T22:49:39.224Z,78.20
2018-07-22T22:52:07.998Z,78.20
2018-07-22T22:54:36.743Z,78.50
2018-07-22T22:57:05.504Z,78.80
2018-07-22T22:59:35.405Z,78.90
2018-07-22T23:02:05.560Z,79.20
2018-07-22T23:04:34.424Z,79.70
2018-07-22T23:07:03.181Z,79.20
2018-07-22T23:09:31.931Z,79.20
2018-07-22T23:12:00.600Z,79.40
2018-07-22T23:14:29.414Z,79.10
2018-07-22T23:16:58.142Z,79.20
2018-07-22T23:19:26.827Z,79.60
2018-07-22T23:21:55.557Z,79.60
2018-07-22T23:24:24.365Z,79.90
2018-07-22T23:26:53.040Z,79.80
2018-07-22T23:29:21.843Z,79.60
2018-07-22T23:31:50.551Z,79.50
2018-07-22T23:34:19.342Z,79.40
2018-07-22T23:36:47.964Z,79.50
2018-07-22T23:39:16.759Z,79.50
2018-07-22T23:41:45.512Z,79.60
2018-07-22T23:44:14.251Z,79.80
2018-07-22T23:46:43.035Z,80.40
2018-07-22T23:49:11.842Z,80.70
2018-07-22T23:51:40.676Z,81.10
2018-07-22T23:54:09.505Z,81.50
2018-07-22T23:56:38.204Z,82.00
2018-07-22T23:59:07.033Z,83.10
